Terminal Aerodrome Forecast
Issued by NWS Sterling, VA

Current Version | Previous Version | Text Only | Print | Product List | Glossary Off
Versions: 1 2 3 4 5 6 7 8 9 10 11 12 13 14 15 16 17 18

000
FTUS41 KLWX 310853 AAA
TAFMRB
TAF AMD
KMRB 310853Z 3109/0106 VRB03KT 3/4SM BR SCT070
     FM311400 21006KT P6SM BKN070
     FM311900 20007KT P6SM VCTS BKN060CB
     FM312100 20007KT P6SM BKN050
     FM010000 19005KT P6SM SHRA BKN060=

USA.gov is the U.S. government's official web portal to all federal, state and local government web resources and services.